Paro, Bhutan
Current Conditions -  °F | °C
As of 7:50 PM on Friday 24 Oct 2014 (Local Time) from VNKT Reporting Station
Few Clouds Few Clouds  
Wind Chill: 64°   Ceiling: Unl
Heat Index: 64°   Visibility: 5mi
Dew Point: 57°   Wind: 0mph
Humidity: 77%   Direction: NA
Pressure: 30.09"   Gusts: NA
Location:  27.51°N, 89.36°E
Report Text: VNKT 241350Z 00000KT 8000 FEW025 18/14 Q1019 NOSIG
Loading
Personal Weather Stations






























Interactive Weather Map New forecast layout! Learn more

10-Day Weather Forecast

Advertisements
Track Severe Weather on mobile